Terminal Aerodrome Forecast
Issued by NWS

Home | Current Version | Previous Version | Text Only | Print | Product List | Glossary On
Versions: 1 2 3 4 5 6 7 8 9 10 11 12 13 14
000
FTUS42 KGSP 010520
TAFAND
TAF
KAND 010520Z 0106/0206 04005KT P6SM SCT060
      TEMPO 0106/0110 BKN060
     FM011000 02004KT P6SM SCT060
     FM011400 03008KT P6SM SCT060
     FM011800 35007KT P6SM FEW060
     FM020200 03005KT P6SM FEW060=

USA.gov is the U.S. government's official web portal to all federal, state and local government web resources and services.